Capitol Logistics 13


RKSI
Incheon International Airport
Seoul, KR
PANC
Ted Stevens Anchorage International Airport
Anchorage, US

Activity Log

Date Flight Route Aircraft Duration
02/22/2020 CPX13 EGOBA1L EGOBA G597 KAE G597 LANAT Y51 KAGIS A590 SELDM A590 PORGE A590 HAMND NEELL6 B77L 7h 12m
12/29/2019 CPX13 EGOBA1L EGOBA G597 KAE G597 LANAT Y51 KAGIS A590 SELDM A590 PORGE A590 HAMND NEELL6 B744 7h 21m
12/09/2019 CPX13 EGOBA1L EGOBA G597 KAE G597 LANAT Y51 KAGIS A590 SELDM A590 PORGE A590 HAMND NEELL6 B77L 8h 00m
12/09/2019 CPX13 EGOBA1L EGOBA G597 KAE G597 LANAT Y51 KAGIS A590 SELDM A590 PORGE A590 HAMND NEELL6 B744 7h 37m
12/05/2019 CPX13 EGOBA1L EGOBA G597 KAE G597 LANAT Y51 KAGIS A590 SELDM A590 PORGE A590 HAMND NEELL6 B744 7h 16m
11/23/2019 CPX13 EGOBA1L EGOBA G597 KAE G597 LANAT Y51 KAGIS A590 SELDM A590 PORGE A590 HAMND NEELL6 B77L 7h 53m
11/21/2019 CPX13 EGOBA1L EGOBA G597 KAE G597 LANAT Y51 KAGIS A590 SELDM A590 PORGE A590 HAMND NEELL6 B744 7h 21m
11/08/2019 CPX13 EGOBA1L EGOBA G597 KAE G597 LANAT Y51 KAGIS A590 SELDM A590 PORGE A590 HAMND NEELL6 B744 7h 29m
10/08/2019 CPX13 EGOBA1L EGOBA G597 KAE G597 LANAT Y51 KAGIS A590 SELDM A590 PORGE A590 HAMND NEELL6 B744 7h 07m
07/28/2019 CPX13 EGOBA1L EGOBA G597 KAE G597 LANAT Y51 KAGIS A590 SELDM A590 PORGE A590 HAMND NEELL6 B744 7h 46m
05/27/2019 CPX13 EGOB1S EGOBA G597 KAE B467 TENAS L512 GTC R217 SDE Y512 OATIS OTR3 PUTER/N0510F320 A590 PASRO/N0505F330 A590 PINSO/N0504F340 A590 HAMND NEELL B744 7h 34m
03/19/2019 CPX13 EGOBA1L EGOBA G597 KAE G597 LANAT Y51 KAGIS A590 SELDM A590 PORGE A590 HAMND NEELL6 B744 7h 38m
02/23/2019 CPX13 SEL Y697 KAE Y437 TENAS L512 GTC Y512 OATIS OTR3 PUTER A590 POOFF A590 PTZGR A590 PUGGY A590 PORGE A590 HAMND NEELL6 MD11 7h 20m

Route Details

Aircraft Information
Primary: Boeing 747-400BCF
Backup: Boeing 777-200LRF
Route Data
Distance: 3793nm
Sched. Duration: 7h 00m
Avg. Duration: 7h 33m (+34m)
Times Flown: 13
Recm'd Route: EGOBA1L EGOBA G597 KAE G597 LANAT Y51 KAGIS A590 SELDM A590 PORGE A590 HAMND NEELL6
Planned Altitude: 31,000ft
Origin Wx: RKSI 272330Z 24002KT 6000 SCT045 OVC100 05/02 Q1025 TEMPO -RA
Dest. Wx: PANC 272253Z 00000KT 10SM CLR M05/M12 A2959 RMK AO2 SLP022 T10501122
Notes:

Financial History
Total Freight: 2,730,135lbs
Average Load: 210,010lbs/flt
Fuel Used: 1,904,893lbs
Avg. Fuel Used: 146,530lbs/flt
Fuel Expense: $1,523,914
Avg. Fuel Expense: $117,224
Avg. Fuel Cost: $0.80/lbs
Total Gross Income: $11,947,344
Pilot Pay: $2,867
Total Expenses: $1,290,989
Total Revenue: $9,110,117
Average Revenue: $919,026.49